< < Back
Terminal Aerodrome Forecast


Current Version              Previous Versions:   1  2  3  4  5  6  7  8  9  

Terminal Aerodrome Forecast

058
FTUS42 KMLB 300539
TAFDAB
TAF
KDAB 300539Z 3006/0106 VRB03KT P6SM SCT080 SCT200
     FM301400 13007KT P6SM FEW025 SCT200
     FM301700 11010KT P6SM FEW040 SCT200
     FM010100 12003KT P6SM FEW070 BKN250=



Latest METAR

739
SAUS80 KWBC 302000
MTRDAB
METAR KDAB 301953Z 10008KT 10SM FEW035 OVC200 28/20 A2998 RMK AO2 SLP150
CB DSNT NE NW TCU DSNT SW-W T02830200


USA.gov is the U.S. government's official web portal to all federal, state and local government web resources and services.